x

Jonesport, Me - 20 Nm Se Of Jonesport, Me (44027) Wave Buoy

10:50pm - Sat 20th Sep 2014 All times are ADT. -3 hours from GMT.

  • Sig Wave height 3.9ft
  • Peak Period 6s
  • Average Period 4s
  • Wind
    18mph, 20mph gusts
  • Sea Temp 56°f
  • Air Temp 58°f
  • Sea Pressure 1020mb
  • Jonesport, Me - 20 Nm Se Of Jonesport, Me
  • Jonesport, Me - 20 Nm Se Of Jonesport, Me

More Historic Weather Station data

Upgrade to MSW Pro to gain access to the past 30 days of data for over 8000 Wavebouys and Weather Stations around the globe.

Join Pro

Comparision Forecast

View Surf forecast
   
Sat 09/20 10:50pm 4ft 6s 4s 18 20 mph 1020mb 56f 58f
9:50pm 4.5ft 6s 5s 16 18 mph 1020.4mb 56f 58f
8:50pm 5ft 6s 5s 16 20 mph 1020.8mb 55f 58f
7:50pm 5ft 6s 5s 18 20 mph 1020.9mb 55f 58f
6:50pm 5.5ft 6s 5s 20 25 mph 1021.4mb 55f 58f
5:50pm 6.5ft 6s 5s 20 25 mph 1021.8mb 55f 58f
4:50pm 6ft 6s 5s 20 25 mph 1022mb 55f 57f
3:50pm 6ft 6s 5s 25 29 mph 1022.5mb 56f 57f
2:50pm 5ft 6s 5s 22 27 mph 1023.5mb 55f 56f
1:50pm 5ft 5s 5s 22 27 mph 1024.6mb 56f 56f
12:50pm 5ft 5s 5s 22 27 mph 1025mb 56f 56f
11:50am 4.5ft 5s 4s 20 25 mph 1025.6mb 56f 56f
10:50am 4.5ft 5s 4s 20 27 mph 1026.5mb 55f 55f
9:50am 3.5ft 5s 4s 25 29 mph 1026.6mb 55f 55f
8:50am 3.5ft 5s 4s 22 25 mph 1027mb 55f 54f
7:50am 3ft 4s 4s 20 25 mph 1027.4mb 55f 53f
6:50am 3ft 4s 4s 20 22 mph 1028mb 55f 53f
5:50am 2.5ft 4s 4s 16 20 mph 1028.6mb 56f 53f
4:50am 2.5ft 4s 4s 16 20 mph 1028.5mb 56f 53f
3:50am 2ft 4s 4s 16 18 mph 1029.2mb 55f 52f
2:50am 1.6ft 9s 4s 13 18 mph 1029.2mb 55f 53f
1:50am 1.3ft 10s 4s 13 18 mph 1029.1mb 56f 53f
12:50am 1.3ft 9s 4s 13 16 mph 1029.2mb 56f 53f
Fri 09/19 11:50pm 1.3ft 8s 4s 11 13 mph 1029.5mb 56f 53f
10:50pm 1.3ft 8s 5s 11 16 mph 1029.4mb 56f 53f
9:50pm 1.3ft 8s 6s 9 13 mph 1029mb 56f 53f
8:50pm 1.6ft 8s 6s 11 13 mph 1028.8mb 56f 53f
7:50pm 1.6ft 8s 5s 9 11 mph 1028.2mb 55f 52f
6:50pm 1.6ft 9s 5s 7 9 mph 1028mb 55f 53f
5:50pm 1.6ft 10s 5s  -  2 mph 1027.9mb 55f 53f
4:50pm 1.6ft 10s 4s 7 9 mph 1027.8mb 55f 52f
3:50pm 1.6ft 11s 4s 7
mph
1028mb 55f 51f
2:50pm 2ft 4s 4s 9 11 mph 1027.7mb 55f 50f
1:50pm 2.5ft 3s 4s 13 18 mph 1027.4mb 55f 49f
12:50pm 2.5ft 3s 4s 16 20 mph 1026.9mb 55f 48f
11:50am 3.5ft 4s 4s 16 20 mph 1026.8mb 56f 46f
10:50am 3.5ft 4s 4s 18 20 mph 1026.5mb 56f 46f
9:50am 3.5ft 4s 4s 22 27 mph 1025.7mb 56f 46f
8:50am 3.5ft 4s 4s 20 25 mph 1025mb 55f 45f
7:50am 3.5ft 5s 4s 20 22 mph 1024.1mb 55f 45f
6:50am 3.5ft 4s 4s 20 25 mph 1023.1mb 55f 46f
5:50am 3.5ft 4s 4s 22 27 mph 1022mb 55f 47f
4:50am 3ft 4s 4s 20 25 mph 1021.1mb 55f 47f
3:50am 3.5ft 4s 4s 20 25 mph 1020.6mb 55f 48f
2:50am 3.5ft 4s 4s 25 29 mph 1019.7mb 55f 49f
1:50am 3.5ft 4s 4s 22 27 mph 1019.3mb 55f 50f
12:50am 3.5ft 11s 4s 22 27 mph 1018.5mb 56f 51f
Thu 09/18 11:50pm 3ft 11s 4s 20 22 mph 1017.9mb 56f 53f
10:50pm 3ft 10s 5s 16 20 mph 1017.4mb 56f 54f
9:50pm 2.5ft 10s 5s 18 22 mph 1016.4mb 57f 56f
8:50pm 3ft 11s 7s 18 22 mph 1015.2mb 57f 58f
7:50pm 2.5ft 11s 7s 7 11 mph 1014.4mb 56f 58f
6:50pm 3.5ft 10s 8s 2 4 mph 1013.7mb 56f 59f
5:50pm 2.5ft 10s 7s 7
mph
1013mb 55f 57f
4:50pm 3.5ft 11s 7s 9 11 mph 1012.9mb 56f 57f
3:50pm 3.5ft 12s 8s 7 9 mph 1012.4mb 56f 58f
2:50pm 3ft 12s 8s 7 9 mph 1012.4mb 56f 57f
1:50pm 4ft 12s 9s 7 9 mph 1012.8mb 57f 57f
12:50pm 3.5ft 13s 9s 9 11 mph 1012.8mb 57f 58f
11:50am 3.5ft 12s 9s 7 9 mph 1013.2mb 57f 58f
10:50am 3.5ft 14s 9s 9
mph
1012.9mb 56f 58f
9:50am 4ft 12s 9s 9 11 mph 1012.6mb 56f 58f
8:50am 3.5ft 11s 7s 9 11 mph 1012.6mb 56f 58f
7:50am 4ft 14s 8s 9 11 mph 1012.4mb 56f 58f
6:50am 4.5ft 13s 9s 7 9 mph 1012.1mb 56f 57f
5:50am 4.5ft 13s 8s 7 9 mph 1012mb 55f 57f
4:50am 4.5ft 14s 8s 9 11 mph 1012.1mb 55f 58f
3:50am 4.5ft 14s 8s 9 11 mph 1012.4mb 55f 58f
2:50am 4ft 13s 8s 11 13 mph 1013mb 55f 58f
1:50am 3.5ft 13s 9s 11 13 mph 1013.5mb 55f 58f
12:50am 4.5ft 15s 10s 9 11 mph 1014mb 56f 58f
Wed 09/17 11:50pm 3.5ft 15s 10s 9 11 mph 1014.2mb 57f 58f
10:50pm 3.5ft 13s 10s 7 9 mph 1014.5mb 56f 58f
9:50pm 3.5ft 13s 9s 9 11 mph 1014.8mb 57f 58f
8:50pm 3.5ft 14s 9s 11 13 mph 1014.6mb 57f 58f
7:50pm 3.5ft 13s 8s 11 13 mph 1013.9mb 57f 58f
6:50pm 3ft 13s 8s 13 16 mph 1013.9mb 57f 59f
5:50pm 3.5ft 13s 8s 11
mph
1013.7mb 57f 58f
4:50pm 3ft 12s 7s 11 13 mph 1013.9mb 57f 58f
3:50pm 3ft 14s 8s 9 11 mph 1014.2mb 57f 58f
2:50pm 2.5ft 15s 9s 11
mph
1014.6mb 56f 57f
1:50pm 2.5ft 14s 9s 9 11 mph 1014.9mb 57f 57f
12:50pm 2.5ft 13s 9s 7 9 mph 1015mb 57f 56f
11:50am 1.6ft 14s 7s 4
mph
1015.2mb 57f 56f
10:50am 2ft 15s 8s 4 7 mph 1015.2mb 56f 55f
9:50am 2ft 13s 7s 7
mph
1015mb 56f 55f
8:50am 1.6ft 14s 6s 7
mph
1014.4mb 56f 55f
7:50am 1.6ft 15s 5s 9 11 mph 1013.9mb 56f 55f
6:50am 1.6ft 13s 5s 9 11 mph 1013.7mb 56f 55f
5:50am 2ft 13s 5s 7
mph
1013.2mb 56f 55f
4:50am 1.6ft 12s 4s 9 11 mph 1013.2mb 56f 56f
3:50am 2ft 4s 4s 11 13 mph 1013.2mb 56f 57f